sensor_id;sensor_type;location;lat;lon;timestamp;pressure;altitude;pressure_sealevel;temperature;humidity
48204;BME280;33994;50.998;5.864;2023-06-26T00:02:30;100744.31;;;22.96;63.77
48204;BME280;33994;50.998;5.864;2023-06-26T00:05:34;100750.94;;;22.90;63.60
48204;BME280;33994;50.998;5.864;2023-06-26T00:08:37;100753.06;;;22.85;64.13
48204;BME280;33994;50.998;5.864;2023-06-26T00:11:40;100747.72;;;22.85;63.78
48204;BME280;33994;50.998;5.864;2023-06-26T00:14:44;100743.34;;;22.84;64.11
48204;BME280;33994;50.998;5.864;2023-06-26T00:17:47;100747.94;;;22.82;63.94
48204;BME280;33994;50.998;5.864;2023-06-26T00:20:51;100752.63;;;22.78;63.79
48204;BME280;33994;50.998;5.864;2023-06-26T00:23:54;100751.00;;;22.76;64.04
48204;BME280;33994;50.998;5.864;2023-06-26T00:26:57;100748.53;;;22.73;63.66
48204;BME280;33994;50.998;5.864;2023-06-26T00:30:01;100744.28;;;22.70;63.93
48204;BME280;33994;50.998;5.864;2023-06-26T00:33:04;100752.47;;;22.67;63.56
48204;BME280;33994;50.998;5.864;2023-06-26T00:36:09;100765.22;;;22.62;63.85
48204;BME280;33994;50.998;5.864;2023-06-26T00:39:12;100759.31;;;22.57;63.64
48204;BME280;33994;50.998;5.864;2023-06-26T00:42:15;100762.09;;;22.55;63.67
48204;BME280;33994;50.998;5.864;2023-06-26T00:45:19;100760.28;;;22.56;63.26
48204;BME280;33994;50.998;5.864;2023-06-26T00:48:22;100752.09;;;22.59;62.29
48204;BME280;33994;50.998;5.864;2023-06-26T00:51:27;100752.53;;;22.66;61.53
48204;BME280;33994;50.998;5.864;2023-06-26T00:54:31;100743.44;;;22.70;61.08
48204;BME280;33994;50.998;5.864;2023-06-26T00:57:35;100737.66;;;22.76;60.21
48204;BME280;33994;50.998;5.864;2023-06-26T01:00:38;100742.47;;;22.83;59.39
48204;BME280;33994;50.998;5.864;2023-06-26T01:03:43;100749.00;;;22.92;59.01
48204;BME280;33994;50.998;5.864;2023-06-26T01:06:48;100748.59;;;22.98;58.82
48204;BME280;33994;50.998;5.864;2023-06-26T01:09:53;100749.13;;;23.03;58.49
48204;BME280;33994;50.998;5.864;2023-06-26T01:12:57;100750.63;;;23.07;58.51
48204;BME280;33994;50.998;5.864;2023-06-26T01:16:01;100744.13;;;23.12;58.58
48204;BME280;33994;50.998;5.864;2023-06-26T01:19:10;100743.91;;;23.15;59.02
48204;BME280;33994;50.998;5.864;2023-06-26T01:22:19;100747.53;;;23.14;59.39
48204;BME280;33994;50.998;5.864;2023-06-26T01:25:35;100741.22;;;23.15;59.43
48204;BME280;33994;50.998;5.864;2023-06-26T01:28:42;100743.91;;;23.15;59.94
48204;BME280;33994;50.998;5.864;2023-06-26T01:31:47;100755.66;;;23.12;59.86
48204;BME280;33994;50.998;5.864;2023-06-26T01:34:52;100762.81;;;23.12;60.33
48204;BME280;33994;50.998;5.864;2023-06-26T01:38:11;100770.25;;;23.06;60.43
48204;BME280;33994;50.998;5.864;2023-06-26T01:41:14;100774.09;;;23.02;60.76
48204;BME280;33994;50.998;5.864;2023-06-26T01:44:26;100775.25;;;22.98;60.89
48204;BME280;33994;50.998;5.864;2023-06-26T01:47:31;100784.63;;;22.91;61.38
48204;BME280;33994;50.998;5.864;2023-06-26T01:50:38;100793.91;;;22.86;61.72
48204;BME280;33994;50.998;5.864;2023-06-26T01:53:46;100786.31;;;22.79;62.11
48204;BME280;33994;50.998;5.864;2023-06-26T01:56:53;100792.16;;;22.72;62.06
48204;BME280;33994;50.998;5.864;2023-06-26T01:59:59;100795.84;;;22.69;61.96
48204;BME280;33994;50.998;5.864;2023-06-26T02:03:03;100797.84;;;22.66;62.08
48204;BME280;33994;50.998;5.864;2023-06-26T02:06:06;100804.31;;;22.62;62.01
48204;BME280;33994;50.998;5.864;2023-06-26T02:09:09;100801.44;;;22.52;62.11
48204;BME280;33994;50.998;5.864;2023-06-26T02:12:13;100808.09;;;22.45;63.04
48204;BME280;33994;50.998;5.864;2023-06-26T02:15:17;100816.28;;;22.42;63.46
48204;BME280;33994;50.998;5.864;2023-06-26T02:18:20;100824.41;;;22.40;63.60
48204;BME280;33994;50.998;5.864;2023-06-26T02:21:24;100821.72;;;22.40;63.62
48204;BME280;33994;50.998;5.864;2023-06-26T02:24:27;100828.88;;;22.40;63.40
48204;BME280;33994;50.998;5.864;2023-06-26T02:27:30;100830.03;;;22.35;63.21
48204;BME280;33994;50.998;5.864;2023-06-26T02:30:34;100836.41;;;22.33;62.75
48204;BME280;33994;50.998;5.864;2023-06-26T02:33:37;100840.41;;;22.26;62.54
48204;BME280;33994;50.998;5.864;2023-06-26T02:36:40;100841.66;;;22.20;62.60
48204;BME280;33994;50.998;5.864;2023-06-26T02:39:43;100844.41;;;22.19;62.64
48204;BME280;33994;50.998;5.864;2023-06-26T02:42:47;100846.50;;;22.14;62.47
48204;BME280;33994;50.998;5.864;2023-06-26T02:45:51;100846.69;;;22.10;63.22
48204;BME280;33994;50.998;5.864;2023-06-26T02:48:54;100847.06;;;22.04;64.03
48204;BME280;33994;50.998;5.864;2023-06-26T02:51:57;100849.19;;;21.99;64.68
48204;BME280;33994;50.998;5.864;2023-06-26T02:55:00;100854.69;;;21.96;65.04
48204;BME280;33994;50.998;5.864;2023-06-26T02:58:03;100850.75;;;21.87;65.61
48204;BME280;33994;50.998;5.864;2023-06-26T03:01:08;100853.03;;;21.79;66.31
48204;BME280;33994;50.998;5.864;2023-06-26T03:04:11;100858.72;;;21.73;66.83
48204;BME280;33994;50.998;5.864;2023-06-26T03:07:14;100866.16;;;21.68;67.10
48204;BME280;33994;50.998;5.864;2023-06-26T03:10:17;100863.94;;;21.60;67.45
48204;BME280;33994;50.998;5.864;2023-06-26T03:13:20;100859.00;;;21.54;67.65
48204;BME280;33994;50.998;5.864;2023-06-26T03:16:25;100866.56;;;21.46;67.64
48204;BME280;33994;50.998;5.864;2023-06-26T03:19:29;100865.91;;;21.43;67.85
48204;BME280;33994;50.998;5.864;2023-06-26T03:22:32;100867.16;;;21.37;67.62
48204;BME280;33994;50.998;5.864;2023-06-26T03:25:35;100867.31;;;21.34;67.30
48204;BME280;33994;50.998;5.864;2023-06-26T03:28:38;100879.25;;;21.27;67.23
48204;BME280;33994;50.998;5.864;2023-06-26T03:31:43;100879.53;;;21.22;66.77
48204;BME280;33994;50.998;5.864;2023-06-26T03:34:46;100884.94;;;21.21;66.52
48204;BME280;33994;50.998;5.864;2023-06-26T03:37:49;100884.50;;;21.12;66.36
48204;BME280;33994;50.998;5.864;2023-06-26T03:40:52;100885.72;;;21.07;66.45
48204;BME280;33994;50.998;5.864;2023-06-26T03:43:55;100895.66;;;21.03;66.42
48204;BME280;33994;50.998;5.864;2023-06-26T03:47:00;100908.13;;;21.03;65.99
48204;BME280;33994;50.998;5.864;2023-06-26T03:50:03;100907.25;;;21.02;66.05
48204;BME280;33994;50.998;5.864;2023-06-26T03:53:07;100907.31;;;21.01;66.36
48204;BME280;33994;50.998;5.864;2023-06-26T03:56:10;100922.78;;;20.94;66.62
48204;BME280;33994;50.998;5.864;2023-06-26T03:59:14;100924.84;;;20.89;66.71
48204;BME280;33994;50.998;5.864;2023-06-26T04:02:19;100924.94;;;20.87;66.84
48204;BME280;33994;50.998;5.864;2023-06-26T04:05:22;100918.06;;;20.83;66.86
48204;BME280;33994;50.998;5.864;2023-06-26T04:08:25;100923.28;;;20.85;66.63
48204;BME280;33994;50.998;5.864;2023-06-26T04:11:28;100920.91;;;20.80;66.63
48204;BME280;33994;50.998;5.864;2023-06-26T04:14:32;100931.63;;;20.79;66.36
48204;BME280;33994;50.998;5.864;2023-06-26T04:17:36;100923.81;;;20.76;66.46
48204;BME280;33994;50.998;5.864;2023-06-26T04:21:07;100932.72;;;20.75;66.40
48204;BME280;33994;50.998;5.864;2023-06-26T04:24:11;100934.44;;;20.76;66.20
48204;BME280;33994;50.998;5.864;2023-06-26T04:27:14;100927.41;;;20.75;66.36
48204;BME280;33994;50.998;5.864;2023-06-26T04:30:17;100928.28;;;20.75;66.37
48204;BME280;33994;50.998;5.864;2023-06-26T04:33:22;100930.94;;;20.75;66.29
48204;BME280;33994;50.998;5.864;2023-06-26T04:36:25;100934.44;;;20.76;66.03
48204;BME280;33994;50.998;5.864;2023-06-26T04:39:28;100935.16;;;20.79;66.01
48204;BME280;33994;50.998;5.864;2023-06-26T04:42:32;100937.81;;;20.79;65.93
48204;BME280;33994;50.998;5.864;2023-06-26T04:45:35;100945.50;;;20.84;65.78
48204;BME280;33994;50.998;5.864;2023-06-26T04:48:39;100953.31;;;20.87;65.79
48204;BME280;33994;50.998;5.864;2023-06-26T04:51:43;100953.31;;;20.87;65.89
48204;BME280;33994;50.998;5.864;2023-06-26T04:54:46;100961.09;;;20.90;66.00
48204;BME280;33994;50.998;5.864;2023-06-26T04:57:49;100965.66;;;20.88;66.20
48204;BME280;33994;50.998;5.864;2023-06-26T05:00:53;100962.16;;;20.87;66.55
48204;BME280;33994;50.998;5.864;2023-06-26T05:03:57;100963.59;;;20.93;66.61
48204;BME280;33994;50.998;5.864;2023-06-26T05:07:00;100972.19;;;20.98;66.66
48204;BME280;33994;50.998;5.864;2023-06-26T05:10:04;100975.06;;;20.94;67.06
48204;BME280;33994;50.998;5.864;2023-06-26T05:13:08;100976.28;;;20.88;66.91
48204;BME280;33994;50.998;5.864;2023-06-26T05:16:11;100974.66;;;20.85;67.35
48204;BME280;33994;50.998;5.864;2023-06-26T05:19:15;100975.34;;;20.89;67.60
48204;BME280;33994;50.998;5.864;2023-06-26T05:22:19;100967.88;;;20.96;67.52
48204;BME280;33994;50.998;5.864;2023-06-26T05:25:23;100959.66;;;21.16;67.30
48204;BME280;33994;50.998;5.864;2023-06-26T05:28:27;100967.50;;;21.49;66.26
48204;BME280;33994;50.998;5.864;2023-06-26T05:31:31;100980.13;;;21.46;66.18
48204;BME280;33994;50.998;5.864;2023-06-26T05:34:37;100982.28;;;21.39;66.50
48204;BME280;33994;50.998;5.864;2023-06-26T05:37:42;100986.13;;;21.49;66.44
48204;BME280;33994;50.998;5.864;2023-06-26T05:40:45;100988.41;;;22.16;64.56
48204;BME280;33994;50.998;5.864;2023-06-26T05:43:49;100992.16;;;22.84;62.44
48204;BME280;33994;50.998;5.864;2023-06-26T05:46:52;101002.31;;;23.48;60.89
48204;BME280;33994;50.998;5.864;2023-06-26T05:49:57;100983.88;;;24.23;58.71
48204;BME280;33994;50.998;5.864;2023-06-26T05:53:00;100990.00;;;25.00;56.69
48204;BME280;33994;50.998;5.864;2023-06-26T05:56:04;100991.66;;;25.14;55.75
48204;BME280;33994;50.998;5.864;2023-06-26T05:59:08;100987.53;;;25.21;55.34
48204;BME280;33994;50.998;5.864;2023-06-26T06:02:11;100999.88;;;25.47;54.70
48204;BME280;33994;50.998;5.864;2023-06-26T06:05:16;100999.44;;;25.54;54.19
48204;BME280;33994;50.998;5.864;2023-06-26T06:08:19;100996.75;;;24.93;55.76
48204;BME280;33994;50.998;5.864;2023-06-26T06:11:22;100990.47;;;24.56;56.59
48204;BME280;33994;50.998;5.864;2023-06-26T06:14:26;101000.53;;;24.39;56.81
48204;BME280;33994;50.998;5.864;2023-06-26T06:17:29;101015.06;;;24.10;57.36
48204;BME280;33994;50.998;5.864;2023-06-26T06:20:34;101023.25;;;24.07;56.95
48204;BME280;33994;50.998;5.864;2023-06-26T06:23:37;101024.53;;;23.88;57.22
48204;BME280;33994;50.998;5.864;2023-06-26T06:26:40;101036.06;;;23.89;57.94
48204;BME280;33994;50.998;5.864;2023-06-26T06:29:43;101039.38;;;23.92;57.49
48204;BME280;33994;50.998;5.864;2023-06-26T06:32:47;101033.19;;;23.92;57.49
48204;BME280;33994;50.998;5.864;2023-06-26T06:35:51;101046.22;;;23.96;57.73
48204;BME280;33994;50.998;5.864;2023-06-26T06:38:54;101043.13;;;24.02;57.57
48204;BME280;33994;50.998;5.864;2023-06-26T06:41:57;101046.13;;;23.98;57.53
48204;BME280;33994;50.998;5.864;2023-06-26T06:45:02;101054.47;;;24.06;57.14
48204;BME280;33994;50.998;5.864;2023-06-26T06:48:05;101066.00;;;24.07;56.90
48204;BME280;33994;50.998;5.864;2023-06-26T06:51:09;101057.25;;;23.92;56.96
48204;BME280;33994;50.998;5.864;2023-06-26T06:54:12;101051.78;;;23.93;56.90
48204;BME280;33994;50.998;5.864;2023-06-26T06:57:15;101065.66;;;23.98;56.57
48204;BME280;33994;50.998;5.864;2023-06-26T07:00:19;101061.81;;;24.02;56.45
48204;BME280;33994;50.998;5.864;2023-06-26T07:03:22;101071.00;;;23.98;56.32
48204;BME280;33994;50.998;5.864;2023-06-26T07:06:26;101067.81;;;23.93;56.30
48204;BME280;33994;50.998;5.864;2023-06-26T07:09:29;101074.38;;;23.75;56.62
48204;BME280;33994;50.998;5.864;2023-06-26T07:12:33;101082.69;;;23.70;56.80
48204;BME280;33994;50.998;5.864;2023-06-26T07:15:36;101088.75;;;23.72;57.38
48204;BME280;33994;50.998;5.864;2023-06-26T07:18:39;101085.19;;;23.86;57.03
48204;BME280;33994;50.998;5.864;2023-06-26T07:21:44;101091.00;;;24.05;56.60
48204;BME280;33994;50.998;5.864;2023-06-26T07:24:47;101086.38;;;24.22;56.26
48204;BME280;33994;50.998;5.864;2023-06-26T07:27:50;101091.03;;;24.45;55.00
48204;BME280;33994;50.998;5.864;2023-06-26T07:30:53;101102.13;;;24.52;54.88
48204;BME280;33994;50.998;5.864;2023-06-26T07:33:56;101108.03;;;24.57;54.55
48204;BME280;33994;50.998;5.864;2023-06-26T07:37:01;101115.50;;;24.65;54.22
48204;BME280;33994;50.998;5.864;2023-06-26T07:40:05;101129.09;;;24.74;54.29
48204;BME280;33994;50.998;5.864;2023-06-26T07:43:08;101127.84;;;24.80;53.90
48204;BME280;33994;50.998;5.864;2023-06-26T07:46:11;101123.53;;;24.90;53.81
48204;BME280;33994;50.998;5.864;2023-06-26T07:49:15;101126.53;;;24.73;54.06
48204;BME280;33994;50.998;5.864;2023-06-26T07:52:19;101128.88;;;24.65;53.99
48204;BME280;33994;50.998;5.864;2023-06-26T07:55:22;101132.72;;;24.61;54.14
48204;BME280;33994;50.998;5.864;2023-06-26T07:58:26;101140.63;;;24.49;53.99
48204;BME280;33994;50.998;5.864;2023-06-26T08:01:29;101138.88;;;24.23;54.48
48204;BME280;33994;50.998;5.864;2023-06-26T08:04:32;101138.88;;;24.23;54.74
48204;BME280;33994;50.998;5.864;2023-06-26T08:07:36;101141.44;;;24.37;54.30
48204;BME280;33994;50.998;5.864;2023-06-26T08:10:40;101140.72;;;24.35;54.31
48204;BME280;33994;50.998;5.864;2023-06-26T08:13:43;101145.53;;;24.30;54.20
48204;BME280;33994;50.998;5.864;2023-06-26T08:16:46;101155.31;;;24.29;54.00
48204;BME280;33994;50.998;5.864;2023-06-26T08:19:49;101157.28;;;24.40;53.79
48204;BME280;33994;50.998;5.864;2023-06-26T08:22:54;101151.41;;;24.35;53.67
48204;BME280;33994;50.998;5.864;2023-06-26T08:25:57;101160.13;;;24.24;53.79
48204;BME280;33994;50.998;5.864;2023-06-26T08:29:00;101159.28;;;24.24;53.93
48204;BME280;33994;50.998;5.864;2023-06-26T08:32:04;101158.44;;;24.23;53.86
48204;BME280;33994;50.998;5.864;2023-06-26T08:35:07;101171.59;;;23.99;54.40
48204;BME280;33994;50.998;5.864;2023-06-26T08:38:12;101160.00;;;23.72;54.63
48204;BME280;33994;50.998;5.864;2023-06-26T08:41:15;101171.75;;;23.69;54.32
48204;BME280;33994;50.998;5.864;2023-06-26T08:44:18;101161.31;;;23.79;54.07
48204;BME280;33994;50.998;5.864;2023-06-26T08:47:22;101165.66;;;23.67;54.55
48204;BME280;33994;50.998;5.864;2023-06-26T08:50:27;101172.31;;;23.74;54.08
48204;BME280;33994;50.998;5.864;2023-06-26T08:53:40;101165.34;;;23.72;54.59
48204;BME280;33994;50.998;5.864;2023-06-26T08:56:47;101166.44;;;23.69;54.33
48204;BME280;33994;50.998;5.864;2023-06-26T08:59:52;101180.78;;;23.81;54.22
48204;BME280;33994;50.998;5.864;2023-06-26T09:02:56;101172.78;;;23.81;54.01
48204;BME280;33994;50.998;5.864;2023-06-26T09:05:59;101168.03;;;23.72;53.64
48204;BME280;33994;50.998;5.864;2023-06-26T09:09:04;101172.88;;;23.79;54.21
48204;BME280;33994;50.998;5.864;2023-06-26T09:12:08;101170.47;;;23.89;54.01
48204;BME280;33994;50.998;5.864;2023-06-26T09:15:14;101176.34;;;23.94;54.27
48204;BME280;33994;50.998;5.864;2023-06-26T09:18:18;101183.00;;;24.01;53.78
48204;BME280;33994;50.998;5.864;2023-06-26T09:21:21;101174.88;;;24.03;53.86
48204;BME280;33994;50.998;5.864;2023-06-26T09:24:26;101184.16;;;23.97;53.11
48204;BME280;33994;50.998;5.864;2023-06-26T09:27:30;101183.84;;;24.02;52.72
48204;BME280;33994;50.998;5.864;2023-06-26T09:30:33;101185.88;;;24.13;52.11
48204;BME280;33994;50.998;5.864;2023-06-26T09:33:38;101192.91;;;24.14;51.46
48204;BME280;33994;50.998;5.864;2023-06-26T09:36:41;101189.66;;;24.09;51.05
48204;BME280;33994;50.998;5.864;2023-06-26T09:39:45;101202.09;;;24.10;50.31
48204;BME280;33994;50.998;5.864;2023-06-26T09:42:49;101202.56;;;24.16;49.90
48204;BME280;33994;50.998;5.864;2023-06-26T09:45:51;101197.75;;;24.21;49.46
48204;BME280;33994;50.998;5.864;2023-06-26T09:49:00;101199.09;;;24.14;49.32
48204;BME280;33994;50.998;5.864;2023-06-26T09:52:05;101191.81;;;23.89;47.64
48204;BME280;33994;50.998;5.864;2023-06-26T09:55:10;101204.34;;;23.89;47.78
48204;BME280;33994;50.998;5.864;2023-06-26T09:58:14;101217.38;;;23.93;48.15
48204;BME280;33994;50.998;5.864;2023-06-26T10:01:19;101205.56;;;23.83;48.78
48204;BME280;33994;50.998;5.864;2023-06-26T10:04:22;101213.50;;;23.85;48.60
48204;BME280;33994;50.998;5.864;2023-06-26T10:07:26;101218.38;;;23.78;49.08
48204;BME280;33994;50.998;5.864;2023-06-26T10:10:32;101217.25;;;23.68;48.34
48204;BME280;33994;50.998;5.864;2023-06-26T10:13:39;101213.63;;;23.69;48.17
48204;BME280;33994;50.998;5.864;2023-06-26T10:16:44;101208.06;;;23.72;48.32
48204;BME280;33994;50.998;5.864;2023-06-26T10:19:49;101201.38;;;23.79;46.92
48204;BME280;33994;50.998;5.864;2023-06-26T10:22:55;101209.22;;;23.82;46.29
48204;BME280;33994;50.998;5.864;2023-06-26T10:26:02;101193.00;;;23.85;46.49
48204;BME280;33994;50.998;5.864;2023-06-26T10:29:05;101196.22;;;23.90;46.39
48204;BME280;33994;50.998;5.864;2023-06-26T10:32:11;101200.09;;;23.99;46.29
48204;BME280;33994;50.998;5.864;2023-06-26T10:35:16;101212.28;;;24.03;45.63
48204;BME280;33994;50.998;5.864;2023-06-26T10:38:19;101204.19;;;24.04;45.26
48204;BME280;33994;50.998;5.864;2023-06-26T10:41:25;101218.50;;;24.03;44.86
48204;BME280;33994;50.998;5.864;2023-06-26T10:44:40;101225.38;;;24.08;45.38
48204;BME280;33994;50.998;5.864;2023-06-26T10:47:46;101213.72;;;24.09;45.95
48204;BME280;33994;50.998;5.864;2023-06-26T10:50:49;101221.91;;;24.05;45.39
48204;BME280;33994;50.998;5.864;2023-06-26T10:53:56;101226.38;;;23.92;45.44
48204;BME280;33994;50.998;5.864;2023-06-26T10:57:02;101244.13;;;23.79;43.38
48204;BME280;33994;50.998;5.864;2023-06-26T11:00:08;101240.13;;;23.72;43.20
48204;BME280;33994;50.998;5.864;2023-06-26T11:03:22;101246.72;;;23.66;42.83
48204;BME280;33994;50.998;5.864;2023-06-26T11:06:26;101247.94;;;23.61;43.58
48204;BME280;33994;50.998;5.864;2023-06-26T11:09:29;101245.09;;;23.64;44.04
48204;BME280;33994;50.998;5.864;2023-06-26T11:12:38;101236.69;;;23.70;43.45
48204;BME280;33994;50.998;5.864;2023-06-26T11:15:42;101240.53;;;23.66;42.66
48204;BME280;33994;50.998;5.864;2023-06-26T11:18:46;101245.88;;;23.66;43.16
48204;BME280;33994;50.998;5.864;2023-06-26T11:21:49;101245.69;;;23.69;41.25
48204;BME280;33994;50.998;5.864;2023-06-26T11:24:53;101247.38;;;23.70;40.56
48204;BME280;33994;50.998;5.864;2023-06-26T11:27:58;101242.03;;;23.70;40.32
48204;BME280;33994;50.998;5.864;2023-06-26T11:31:01;101253.19;;;23.76;40.65
48204;BME280;33994;50.998;5.864;2023-06-26T11:34:07;101255.94;;;23.89;40.90
48204;BME280;33994;50.998;5.864;2023-06-26T11:37:10;101254.13;;;23.90;40.98
48204;BME280;33994;50.998;5.864;2023-06-26T11:40:16;101256.81;;;23.61;41.24
48204;BME280;33994;50.998;5.864;2023-06-26T11:43:21;101261.22;;;23.48;41.31
48204;BME280;33994;50.998;5.864;2023-06-26T11:46:24;101257.13;;;23.42;41.48
48204;BME280;33994;50.998;5.864;2023-06-26T11:49:28;101256.50;;;23.37;40.42
48204;BME280;33994;50.998;5.864;2023-06-26T11:52:32;101269.22;;;23.48;40.37
48204;BME280;33994;50.998;5.864;2023-06-26T11:55:41;101270.25;;;23.60;39.97
48204;BME280;33994;50.998;5.864;2023-06-26T11:58:59;101280.19;;;23.58;39.46
48204;BME280;33994;50.998;5.864;2023-06-26T12:02:06;101291.81;;;23.56;39.93
48204;BME280;33994;50.998;5.864;2023-06-26T12:05:10;101301.91;;;23.51;39.72
48204;BME280;33994;50.998;5.864;2023-06-26T12:08:14;101307.25;;;23.51;39.49
48204;BME280;33994;50.998;5.864;2023-06-26T12:11:17;101308.28;;;23.49;38.73
48204;BME280;33994;50.998;5.864;2023-06-26T12:14:25;101305.91;;;23.44;38.27
48204;BME280;33994;50.998;5.864;2023-06-26T12:17:29;101306.25;;;23.38;38.45
48204;BME280;33994;50.998;5.864;2023-06-26T12:20:32;101303.78;;;23.35;38.30
48204;BME280;33994;50.998;5.864;2023-06-26T12:23:39;101297.34;;;23.39;38.20
48204;BME280;33994;50.998;5.864;2023-06-26T12:26:43;101304.69;;;23.50;38.34
48204;BME280;33994;50.998;5.864;2023-06-26T12:29:51;101295.16;;;23.60;38.63
48204;BME280;33994;50.998;5.864;2023-06-26T12:32:55;101297.34;;;23.68;38.77
48204;BME280;33994;50.998;5.864;2023-06-26T12:35:58;101290.28;;;23.67;39.16
48204;BME280;33994;50.998;5.864;2023-06-26T12:39:01;101293.16;;;23.78;39.09
48204;BME280;33994;50.998;5.864;2023-06-26T12:42:06;101293.88;;;23.80;39.37
48204;BME280;33994;50.998;5.864;2023-06-26T12:45:14;101289.13;;;23.85;39.23
48204;BME280;33994;50.998;5.864;2023-06-26T12:48:18;101300.97;;;23.81;39.21
48204;BME280;33994;50.998;5.864;2023-06-26T12:51:21;101303.34;;;23.86;39.89
48204;BME280;33994;50.998;5.864;2023-06-26T12:54:24;101308.97;;;23.81;38.96
48204;BME280;33994;50.998;5.864;2023-06-26T12:57:27;101311.28;;;23.73;39.04
48204;BME280;33994;50.998;5.864;2023-06-26T13:00:32;101322.03;;;23.71;38.73
48204;BME280;33994;50.998;5.864;2023-06-26T13:03:35;101326.81;;;23.52;39.11
48204;BME280;33994;50.998;5.864;2023-06-26T13:06:38;101316.22;;;23.50;39.72
48204;BME280;33994;50.998;5.864;2023-06-26T13:09:42;101312.59;;;23.51;39.24
48204;BME280;33994;50.998;5.864;2023-06-26T13:12:45;101315.63;;;23.45;38.98
48204;BME280;33994;50.998;5.864;2023-06-26T13:15:49;101300.41;;;23.47;38.90
48204;BME280;33994;50.998;5.864;2023-06-26T13:18:53;101305.72;;;23.47;38.97
48204;BME280;33994;50.998;5.864;2023-06-26T13:21:56;101319.84;;;23.49;39.38
48204;BME280;33994;50.998;5.864;2023-06-26T13:24:59;101315.84;;;23.56;39.27
48204;BME280;33994;50.998;5.864;2023-06-26T13:28:02;101317.56;;;23.58;38.68
48204;BME280;33994;50.998;5.864;2023-06-26T13:31:06;101310.41;;;23.58;38.33
48204;BME280;33994;50.998;5.864;2023-06-26T13:34:19;101315.56;;;23.47;37.97
48204;BME280;33994;50.998;5.864;2023-06-26T13:37:22;101311.81;;;23.35;38.24
48204;BME280;33994;50.998;5.864;2023-06-26T13:40:25;101309.78;;;23.24;37.75
48204;BME280;33994;50.998;5.864;2023-06-26T13:43:29;101304.50;;;23.23;37.74
48204;BME280;33994;50.998;5.864;2023-06-26T13:46:33;101305.00;;;23.29;37.92
48204;BME280;33994;50.998;5.864;2023-06-26T13:49:36;101312.28;;;23.42;38.82
48204;BME280;33994;50.998;5.864;2023-06-26T13:52:40;101322.25;;;23.54;38.91
48204;BME280;33994;50.998;5.864;2023-06-26T13:55:43;101322.03;;;23.57;38.98
48204;BME280;33994;50.998;5.864;2023-06-26T13:58:46;101321.75;;;23.47;39.45
48204;BME280;33994;50.998;5.864;2023-06-26T14:01:51;101336.25;;;23.43;39.62
48204;BME280;33994;50.998;5.864;2023-06-26T14:04:54;101329.53;;;23.36;39.43
48204;BME280;33994;50.998;5.864;2023-06-26T14:07:57;101329.88;;;23.30;39.67
48204;BME280;33994;50.998;5.864;2023-06-26T14:11:00;101333.00;;;23.22;39.49
48204;BME280;33994;50.998;5.864;2023-06-26T14:14:03;101327.00;;;23.19;40.12
48204;BME280;33994;50.998;5.864;2023-06-26T14:17:08;101333.88;;;23.23;39.96
48204;BME280;33994;50.998;5.864;2023-06-26T14:20:11;101330.09;;;23.27;40.18
48204;BME280;33994;50.998;5.864;2023-06-26T14:23:14;101329.31;;;23.25;40.06
48204;BME280;33994;50.998;5.864;2023-06-26T14:26:17;101329.78;;;23.17;40.16
48204;BME280;33994;50.998;5.864;2023-06-26T14:29:21;101335.75;;;23.06;40.41
48204;BME280;33994;50.998;5.864;2023-06-26T14:32:25;101328.13;;;23.00;39.97
48204;BME280;33994;50.998;5.864;2023-06-26T14:35:29;101340.50;;;23.01;40.02
48204;BME280;33994;50.998;5.864;2023-06-26T14:38:32;101334.97;;;23.04;40.23
48204;BME280;33994;50.998;5.864;2023-06-26T14:41:35;101337.44;;;23.07;40.07
48204;BME280;33994;50.998;5.864;2023-06-26T14:44:38;101330.22;;;23.10;40.02
48204;BME280;33994;50.998;5.864;2023-06-26T14:47:43;101332.09;;;23.07;39.85
48204;BME280;33994;50.998;5.864;2023-06-26T14:50:46;101327.91;;;23.03;40.51
48204;BME280;33994;50.998;5.864;2023-06-26T14:53:49;101335.38;;;23.13;40.29
48204;BME280;33994;50.998;5.864;2023-06-26T14:56:52;101334.53;;;23.12;39.66
48204;BME280;33994;50.998;5.864;2023-06-26T14:59:55;101332.22;;;23.06;39.21
48204;BME280;33994;50.998;5.864;2023-06-26T15:03:00;101336.97;;;23.01;39.60
48204;BME280;33994;50.998;5.864;2023-06-26T15:06:03;101334.19;;;23.02;39.65
48204;BME280;33994;50.998;5.864;2023-06-26T15:09:06;101344.59;;;23.07;39.93
48204;BME280;33994;50.998;5.864;2023-06-26T15:12:09;101357.00;;;23.08;39.75
48204;BME280;33994;50.998;5.864;2023-06-26T15:15:13;101347.47;;;23.04;39.95
48204;BME280;33994;50.998;5.864;2023-06-26T15:18:17;101342.22;;;23.02;39.56
48204;BME280;33994;50.998;5.864;2023-06-26T15:21:20;101346.00;;;22.98;39.67
48204;BME280;33994;50.998;5.864;2023-06-26T15:24:23;101338.19;;;22.95;39.22
48204;BME280;33994;50.998;5.864;2023-06-26T15:27:26;101336.75;;;22.90;38.35
48204;BME280;33994;50.998;5.864;2023-06-26T15:30:30;101338.97;;;22.97;38.88
48204;BME280;33994;50.998;5.864;2023-06-26T15:33:34;101342.78;;;23.07;38.44
48204;BME280;33994;50.998;5.864;2023-06-26T15:36:37;101343.50;;;22.95;39.02
48204;BME280;33994;50.998;5.864;2023-06-26T15:39:41;101328.13;;;22.84;39.11
48204;BME280;33994;50.998;5.864;2023-06-26T15:42:45;101334.88;;;22.76;39.18
48204;BME280;33994;50.998;5.864;2023-06-26T15:45:48;101329.13;;;22.68;38.90
48204;BME280;33994;50.998;5.864;2023-06-26T15:48:53;101335.81;;;22.59;38.91
48204;BME280;33994;50.998;5.864;2023-06-26T15:51:56;101339.94;;;22.65;38.85
48204;BME280;33994;50.998;5.864;2023-06-26T15:54:59;101343.66;;;22.62;39.04
48204;BME280;33994;50.998;5.864;2023-06-26T15:58:03;101339.69;;;22.69;39.02
48204;BME280;33994;50.998;5.864;2023-06-26T16:01:06;101339.25;;;22.77;39.31
48204;BME280;33994;50.998;5.864;2023-06-26T16:04:11;101335.44;;;22.81;39.19